createdAt,value
2022-12-26T00:01:12.389Z,16.10
2022-12-26T00:03:40.784Z,14.80
2022-12-26T00:06:21.522Z,25.60
2022-12-26T00:08:51.832Z,14.80
2022-12-26T00:11:22.944Z,13.90
2022-12-26T00:14:06.104Z,26.20
2022-12-26T00:16:34.826Z,26.00
2022-12-26T00:19:08.880Z,15.20
2022-12-26T00:21:44.465Z,14.90
2022-12-26T00:24:15.775Z,15.60
2022-12-26T00:26:44.055Z,23.80
2022-12-26T00:29:14.377Z,16.70
2022-12-26T00:31:48.011Z,13.60
2022-12-26T00:34:19.706Z,13.00
2022-12-26T00:36:57.432Z,14.10
2022-12-26T00:40:04.705Z,21.50
2022-12-26T00:42:39.613Z,12.30
2022-12-26T00:45:16.668Z,19.60
2022-12-26T00:47:44.784Z,11.90
2022-12-26T00:50:15.935Z,12.30
2022-12-26T00:52:44.885Z,20.00
2022-12-26T00:57:46.548Z,12.10
2022-12-26T01:00:18.270Z,12.00
2022-12-26T01:02:54.131Z,11.30
2022-12-26T01:05:22.523Z,11.40
2022-12-26T01:08:20.225Z,12.70
2022-12-26T01:10:46.741Z,19.60
2022-12-26T01:13:15.807Z,12.00
2022-12-26T01:15:54.475Z,14.10
2022-12-26T01:20:50.579Z,12.00
2022-12-26T01:23:18.640Z,12.40
2022-12-26T01:26:15.372Z,12.20
2022-12-26T01:28:36.290Z,13.10
2022-12-26T01:31:06.801Z,20.10
2022-12-26T01:33:34.991Z,13.10
2022-12-26T01:36:03.044Z,22.90
2022-12-26T01:38:32.212Z,13.70
2022-12-26T01:41:19.960Z,13.50
2022-12-26T01:44:05.696Z,14.40
2022-12-26T01:46:46.605Z,14.90
2022-12-26T01:49:31.494Z,11.60
2022-12-26T01:52:08.705Z,11.80
2022-12-26T01:54:43.143Z,12.20
2022-12-26T01:57:38.062Z,22.30
2022-12-26T02:00:07.487Z,12.60
2022-12-26T02:03:01.859Z,12.80
2022-12-26T02:08:10.286Z,12.70
2022-12-26T02:10:57.076Z,13.40
2022-12-26T02:13:29.419Z,13.10
2022-12-26T02:15:57.881Z,22.20
2022-12-26T02:18:27.051Z,10.00
2022-12-26T02:21:14.431Z,12.70
2022-12-26T02:24:01.423Z,13.20
2022-12-26T02:26:49.145Z,11.50
2022-12-26T02:29:29.307Z,12.70
2022-12-26T02:32:15.299Z,11.50
2022-12-26T02:35:16.293Z,12.20
2022-12-26T02:38:22.531Z,12.90
2022-12-26T02:41:09.282Z,12.00
2022-12-26T02:43:47.554Z,11.20
2022-12-26T02:46:40.821Z,10.90
2022-12-26T02:49:17.091Z,11.10
2022-12-26T02:52:24.382Z,9.80
2022-12-26T02:55:21.022Z,10.50
2022-12-26T02:58:24.895Z,8.40
2022-12-26T03:01:34.142Z,9.10
2022-12-26T03:04:27.488Z,9.60
2022-12-26T03:07:19.169Z,8.20
2022-12-26T03:10:08.723Z,9.00
2022-12-26T03:13:05.082Z,8.80
2022-12-26T03:15:57.663Z,7.80
2022-12-26T03:18:58.417Z,8.30
2022-12-26T03:21:26.415Z,7.80
2022-12-26T03:23:57.155Z,7.20
2022-12-26T03:26:41.008Z,8.10
2022-12-26T03:29:41.990Z,7.70
2022-12-26T03:32:12.533Z,7.80
2022-12-26T03:34:44.528Z,8.10
2022-12-26T03:37:59.590Z,8.00
2022-12-26T03:41:27.623Z,9.40
2022-12-26T03:44:53.439Z,8.10
2022-12-26T03:47:49.799Z,7.30
2022-12-26T03:51:02.246Z,8.90
2022-12-26T03:54:03.158Z,7.90
2022-12-26T03:57:05.000Z,7.10
2022-12-26T04:00:06.001Z,8.50
2022-12-26T04:03:03.006Z,8.70
2022-12-26T04:05:52.079Z,8.70
2022-12-26T04:08:48.267Z,7.70
2022-12-26T04:11:37.319Z,8.80
2022-12-26T04:14:53.573Z,7.10
2022-12-26T04:17:52.539Z,7.70
2022-12-26T04:20:34.192Z,8.10
2022-12-26T04:23:30.217Z,7.70
2022-12-26T04:26:25.965Z,8.30
2022-12-26T04:29:12.569Z,8.10
2022-12-26T04:32:01.451Z,7.60
2022-12-26T04:35:22.555Z,8.40
2022-12-26T04:38:11.167Z,7.60
2022-12-26T04:41:02.219Z,7.90
2022-12-26T04:43:52.018Z,7.90
2022-12-26T04:46:23.349Z,8.50
2022-12-26T04:49:13.589Z,8.40
2022-12-26T04:51:41.607Z,6.30
2022-12-26T04:54:09.802Z,7.80
2022-12-26T04:56:38.844Z,8.10
2022-12-26T04:59:09.136Z,8.00
2022-12-26T05:01:55.759Z,8.80
2022-12-26T05:04:43.634Z,8.80
2022-12-26T05:07:40.202Z,14.60
2022-12-26T05:10:15.944Z,7.30
2022-12-26T05:12:44.013Z,7.50
2022-12-26T05:15:12.359Z,12.50
2022-12-26T05:17:58.960Z,6.50
2022-12-26T05:20:47.360Z,11.80
2022-12-26T05:23:42.443Z,7.20
2022-12-26T05:26:36.237Z,7.80
2022-12-26T05:29:04.622Z,7.20
2022-12-26T05:31:36.180Z,8.00
2022-12-26T05:34:17.584Z,12.70
2022-12-26T05:36:51.887Z,7.90
2022-12-26T05:39:20.374Z,11.70
2022-12-26T05:41:48.503Z,11.90
2022-12-26T05:44:17.182Z,6.80
2022-12-26T05:46:47.213Z,11.50
2022-12-26T05:49:16.426Z,6.70
2022-12-26T05:51:45.251Z,10.80
2022-12-26T05:56:45.869Z,10.50
2022-12-26T05:59:17.375Z,10.80
2022-12-26T06:01:45.541Z,10.50
2022-12-26T06:04:14.928Z,10.80
2022-12-26T06:06:43.050Z,9.50
2022-12-26T06:09:11.054Z,11.00
2022-12-26T06:11:43.809Z,10.50
2022-12-26T06:14:17.258Z,11.40
2022-12-26T06:16:45.436Z,11.60
2022-12-26T06:19:13.450Z,11.60
2022-12-26T06:21:41.599Z,13.20
2022-12-26T06:24:09.666Z,12.70
2022-12-26T06:26:37.939Z,13.30
2022-12-26T06:29:06.000Z,12.70
2022-12-26T06:31:34.472Z,14.20
2022-12-26T06:34:02.754Z,14.20
2022-12-26T06:36:34.293Z,16.60
2022-12-26T06:39:02.660Z,15.00
2022-12-26T06:41:30.907Z,14.50
2022-12-26T06:44:00.058Z,13.40
2022-12-26T06:46:31.189Z,12.50
2022-12-26T06:57:35.565Z,12.90
2022-12-26T07:00:49.239Z,13.80
2022-12-26T07:07:35.335Z,12.60
2022-12-26T07:18:42.387Z,11.80
2022-12-26T07:29:38.720Z,11.40
2022-12-26T07:33:02.373Z,10.30
2022-12-26T07:39:50.302Z,10.60
2022-12-26T07:42:43.492Z,10.40
2022-12-26T07:53:36.032Z,11.80
2022-12-26T08:04:13.038Z,13.00
2022-12-26T08:11:03.593Z,14.30
2022-12-26T08:14:05.673Z,14.00
2022-12-26T08:25:10.163Z,13.30
2022-12-26T08:36:13.271Z,13.40
2022-12-26T08:47:00.233Z,13.20
2022-12-26T09:02:07.006Z,12.80
2022-12-26T09:08:59.728Z,12.90
2022-12-26T09:28:40.911Z,11.60
2022-12-26T09:39:22.956Z,10.70
2022-12-26T09:50:36.050Z,10.50
2022-12-26T10:01:49.212Z,10.80
2022-12-26T10:04:55.049Z,10.20
2022-12-26T10:20:41.011Z,8.70
2022-12-26T10:36:09.060Z,8.80
2022-12-26T10:42:59.675Z,7.10
2022-12-26T11:02:37.804Z,5.50
2022-12-26T11:14:01.322Z,6.30
2022-12-26T11:25:10.012Z,5.70
2022-12-26T11:28:21.137Z,6.50
2022-12-26T11:39:28.795Z,5.80
2022-12-26T11:54:58.983Z,5.90
2022-12-26T12:01:47.438Z,6.60
2022-12-26T12:21:41.220Z,6.50
2022-12-26T13:08:43.658Z,8.10
2022-12-26T13:33:58.831Z,10.80
2022-12-26T13:49:40.050Z,14.90
2022-12-26T13:52:19.463Z,13.20
2022-12-26T13:54:51.888Z,14.50
2022-12-26T13:57:41.276Z,13.20
2022-12-26T14:00:46.186Z,13.00
2022-12-26T14:03:21.408Z,11.30
2022-12-26T14:06:19.847Z,10.20
2022-12-26T14:08:56.890Z,10.80
2022-12-26T14:11:57.100Z,11.00
2022-12-26T14:14:37.064Z,10.30
2022-12-26T14:17:25.715Z,10.40
2022-12-26T14:20:01.209Z,11.10
2022-12-26T14:22:51.847Z,12.40
2022-12-26T14:25:44.784Z,11.90
2022-12-26T14:31:22.397Z,15.90
2022-12-26T14:34:27.577Z,16.20
2022-12-26T14:37:04.442Z,13.10
2022-12-26T14:39:38.444Z,13.30
2022-12-26T14:42:24.958Z,14.10
2022-12-26T14:45:00.214Z,12.30
2022-12-26T14:47:40.934Z,12.60
2022-12-26T14:50:34.963Z,13.20
2022-12-26T14:53:33.956Z,11.90
2022-12-26T14:56:03.432Z,13.60
2022-12-26T14:58:42.832Z,13.30
2022-12-26T15:01:18.589Z,16.90
2022-12-26T15:04:26.425Z,18.30
2022-12-26T15:07:39.852Z,14.10
2022-12-26T15:10:43.488Z,15.90
2022-12-26T15:13:38.054Z,23.20
2022-12-26T15:16:38.367Z,22.10
2022-12-26T15:19:29.484Z,24.50
2022-12-26T15:22:37.739Z,38.30
2022-12-26T15:29:52.997Z,18.60
2022-12-26T15:32:41.964Z,17.00
2022-12-26T15:35:36.518Z,16.70
2022-12-26T15:38:42.740Z,19.30
2022-12-26T15:41:32.034Z,19.30
2022-12-26T15:44:16.340Z,19.70
2022-12-26T15:47:24.239Z,19.30
2022-12-26T15:49:58.045Z,20.30
2022-12-26T15:52:58.723Z,19.70
2022-12-26T15:55:52.190Z,20.90
2022-12-26T15:59:19.676Z,21.90
2022-12-26T16:01:55.557Z,22.20
2022-12-26T16:08:46.237Z,22.60
2022-12-26T16:12:04.526Z,22.50
2022-12-26T16:15:29.702Z,18.10
2022-12-26T16:18:39.834Z,22.00
2022-12-26T16:21:32.205Z,22.50
2022-12-26T16:24:05.814Z,22.10
2022-12-26T16:26:44.826Z,23.10
2022-12-26T16:29:21.337Z,25.10
2022-12-26T16:31:49.533Z,25.10
2022-12-26T16:34:21.807Z,26.00
2022-12-26T16:36:53.223Z,25.30
2022-12-26T16:39:23.652Z,25.80
2022-12-26T16:42:17.055Z,24.40
2022-12-26T16:44:49.042Z,26.30
2022-12-26T16:47:36.924Z,27.80
2022-12-26T16:50:18.165Z,26.70
2022-12-26T16:53:16.458Z,32.00
2022-12-26T16:55:52.573Z,33.40
2022-12-26T16:58:38.963Z,34.10
2022-12-26T17:01:19.707Z,32.50
2022-12-26T17:04:18.926Z,43.40
2022-12-26T17:07:27.966Z,48.50
2022-12-26T17:10:23.855Z,53.40
2022-12-26T17:13:20.028Z,46.00
2022-12-26T17:16:03.486Z,45.10
2022-12-26T17:21:40.001Z,47.60
2022-12-26T17:24:21.437Z,49.00
2022-12-26T17:27:32.324Z,48.70
2022-12-26T17:30:31.092Z,44.90
2022-12-26T17:33:03.962Z,43.70
2022-12-26T17:36:25.399Z,43.80
2022-12-26T17:38:30.055Z,43.30
2022-12-26T17:41:06.886Z,42.80
2022-12-26T17:43:47.807Z,43.10
2022-12-26T17:46:23.142Z,43.40
2022-12-26T17:48:58.097Z,41.50
2022-12-26T17:51:46.219Z,41.60
2022-12-26T17:54:26.166Z,42.90
2022-12-26T18:00:31.498Z,45.90
2022-12-26T18:03:39.749Z,48.20
2022-12-26T18:06:47.485Z,50.80
2022-12-26T18:09:40.772Z,48.90
2022-12-26T18:17:22.002Z,50.40
2022-12-26T18:19:52.416Z,48.90
2022-12-26T18:22:32.253Z,50.40
2022-12-26T18:29:19.174Z,48.80
2022-12-26T18:31:59.039Z,50.40
2022-12-26T18:35:17.267Z,50.10
2022-12-26T18:38:00.909Z,43.30
2022-12-26T18:49:48.342Z,43.90
2022-12-26T19:09:23.961Z,46.90
2022-12-26T19:20:28.128Z,56.70
2022-12-26T19:31:28.915Z,45.50
2022-12-26T19:42:20.074Z,43.40
2022-12-26T19:57:24.655Z,47.00
2022-12-26T20:04:11.165Z,52.50
2022-12-26T20:07:20.026Z,50.10
2022-12-26T20:14:11.608Z,49.70
2022-12-26T20:24:55.721Z,26.20
2022-12-26T20:28:04.215Z,47.80
2022-12-26T20:34:51.074Z,49.10
2022-12-26T20:37:59.386Z,47.90
2022-12-26T20:44:45.546Z,50.50
2022-12-26T20:47:44.455Z,32.30
2022-12-26T20:58:52.205Z,29.20
2022-12-26T21:09:52.372Z,51.30
2022-12-26T21:25:14.696Z,52.40
2022-12-26T21:28:16.871Z,54.50
2022-12-26T21:35:07.525Z,53.90
2022-12-26T21:38:09.602Z,30.60
2022-12-26T21:44:59.614Z,34.10
2022-12-26T22:00:09.316Z,29.60
2022-12-26T22:14:33.927Z,29.10
2022-12-26T22:21:25.243Z,47.60
2022-12-26T22:24:10.635Z,46.40
2022-12-26T22:30:58.836Z,47.20
2022-12-26T22:34:05.788Z,29.00
2022-12-26T22:40:57.765Z,28.70
2022-12-26T22:54:47.452Z,47.60
2022-12-26T23:10:30.016Z,28.70
2022-12-26T23:25:31.573Z,49.00
2022-12-26T23:32:19.220Z,52.30
2022-12-26T23:43:24.573Z,23.70
2022-12-26T23:58:29.724Z,25.00
